createdAt,value
2023-04-18T00:00:32.441Z,1.65
2023-04-18T00:01:44.599Z,1.05
2023-04-18T00:02:56.478Z,1.40
2023-04-18T00:04:08.920Z,1.00
2023-04-18T00:05:20.918Z,1.25
2023-04-18T00:06:32.608Z,1.70
2023-04-18T00:07:44.666Z,1.33
2023-04-18T00:08:56.470Z,1.45
2023-04-18T00:10:08.213Z,1.33
2023-04-18T00:11:19.663Z,1.40
2023-04-18T00:12:32.051Z,1.38
2023-04-18T00:13:44.423Z,2.08
2023-04-18T00:14:58.728Z,1.60
2023-04-18T00:16:10.278Z,1.42
2023-04-18T00:17:22.372Z,1.20
2023-04-18T00:18:33.880Z,1.10
2023-04-18T00:19:45.466Z,1.20
2023-04-18T00:20:56.958Z,1.40
2023-04-18T00:22:08.789Z,0.90
2023-04-18T00:23:21.558Z,1.05
2023-04-18T00:25:07.082Z,1.05
2023-04-18T00:26:18.528Z,1.20
2023-04-18T00:27:29.957Z,1.17
2023-04-18T00:28:41.433Z,1.45
2023-04-18T00:29:52.953Z,1.35
2023-04-18T00:31:04.684Z,1.13
2023-04-18T00:32:16.340Z,1.20
2023-04-18T00:33:27.807Z,0.95
2023-04-18T00:34:40.506Z,1.33
2023-04-18T00:35:52.113Z,1.10
2023-04-18T00:37:03.513Z,1.38
2023-04-18T00:38:14.923Z,0.88
2023-04-18T00:39:26.362Z,1.10
2023-04-18T00:40:38.505Z,1.20
2023-04-18T00:41:49.936Z,1.90
2023-04-18T00:43:01.504Z,1.77
2023-04-18T00:44:13.202Z,1.70
2023-04-18T00:45:24.867Z,1.70
2023-04-18T00:46:36.395Z,1.60
2023-04-18T00:47:47.868Z,2.13
2023-04-18T00:48:59.394Z,1.80
2023-04-18T00:50:11.135Z,1.80
2023-04-18T00:51:22.651Z,2.00
2023-04-18T00:52:35.881Z,2.47
2023-04-18T00:53:47.429Z,2.60
2023-04-18T00:54:58.889Z,2.55
2023-04-18T00:56:10.605Z,1.90
2023-04-18T00:57:22.388Z,2.10
2023-04-18T00:58:34.043Z,3.50
2023-04-18T00:59:46.569Z,3.00
2023-04-18T01:00:58.046Z,2.97
2023-04-18T01:02:09.513Z,2.90
2023-04-18T01:03:23.088Z,2.97
2023-04-18T01:04:34.840Z,3.13
2023-04-18T01:05:46.618Z,2.50
2023-04-18T01:06:58.276Z,2.83
2023-04-18T01:08:09.873Z,2.63
2023-04-18T01:09:21.822Z,2.72
2023-04-18T01:10:33.232Z,2.22
2023-04-18T01:11:44.705Z,2.13
2023-04-18T01:13:15.323Z,1.70
2023-04-18T01:14:26.780Z,1.70
2023-04-18T01:15:40.068Z,1.27
2023-04-18T01:16:51.627Z,1.15
2023-04-18T01:18:03.822Z,0.90
2023-04-18T01:19:16.998Z,1.50
2023-04-18T01:20:28.485Z,1.33
2023-04-18T01:21:43.808Z,1.10
2023-04-18T01:22:56.157Z,1.42
2023-04-18T01:24:07.925Z,1.23
2023-04-18T01:25:19.396Z,1.35
2023-04-18T01:26:30.932Z,1.45
2023-04-18T01:27:42.391Z,1.27
2023-04-18T01:28:53.815Z,1.50
2023-04-18T01:30:05.693Z,1.42
2023-04-18T01:31:17.138Z,1.45
2023-04-18T01:32:28.597Z,1.40
2023-04-18T01:33:40.037Z,1.30
2023-04-18T01:34:51.476Z,1.45
2023-04-18T01:36:03.016Z,1.60
2023-04-18T01:37:14.527Z,1.52
2023-04-18T01:38:25.958Z,1.15
2023-04-18T01:39:37.402Z,1.50
2023-04-18T01:40:49.028Z,1.15
2023-04-18T01:42:02.197Z,1.40
2023-04-18T01:43:13.750Z,1.00
2023-04-18T01:44:25.204Z,1.20
2023-04-18T01:45:36.647Z,1.40
2023-04-18T01:46:48.145Z,1.65
2023-04-18T01:47:59.642Z,1.02
2023-04-18T01:49:11.119Z,1.00
2023-04-18T01:50:22.685Z,1.30
2023-04-18T01:51:34.185Z,1.08
2023-04-18T01:52:45.681Z,1.23
2023-04-18T01:53:57.174Z,1.40
2023-04-18T01:55:08.816Z,1.60
2023-04-18T01:56:20.971Z,1.38
2023-04-18T01:57:33.451Z,1.20
2023-04-18T01:58:44.968Z,1.27
2023-04-18T01:59:56.602Z,1.50
2023-04-18T02:01:08.520Z,1.20
2023-04-18T02:02:20.215Z,1.23
2023-04-18T02:03:31.962Z,1.35
2023-04-18T02:04:43.544Z,1.70
2023-04-18T02:05:54.980Z,1.30
2023-04-18T02:07:06.427Z,1.50
2023-04-18T02:08:17.933Z,1.23
2023-04-18T02:09:29.371Z,1.80
2023-04-18T02:10:41.371Z,1.73
2023-04-18T02:11:54.359Z,6.10
2023-04-18T02:13:06.830Z,5.43
2023-04-18T02:14:18.296Z,4.97
2023-04-18T02:15:29.832Z,6.47
2023-04-18T02:16:41.401Z,6.07
2023-04-18T02:17:53.780Z,7.30
2023-04-18T02:19:06.378Z,5.85
2023-04-18T02:20:17.825Z,3.17
2023-04-18T02:21:30.331Z,2.10
2023-04-18T02:22:41.761Z,2.42
2023-04-18T02:23:53.296Z,2.63
2023-04-18T02:25:04.930Z,2.25
2023-04-18T02:26:16.348Z,3.00
2023-04-18T02:27:27.924Z,2.20
2023-04-18T02:28:39.528Z,2.40
2023-04-18T02:29:50.983Z,2.35
2023-04-18T02:31:02.385Z,3.00
2023-04-18T02:32:13.844Z,3.63
2023-04-18T02:33:25.294Z,3.25
2023-04-18T02:34:36.977Z,3.65
2023-04-18T02:35:48.412Z,5.82
2023-04-18T02:37:00.166Z,8.13
2023-04-18T02:38:11.751Z,4.75
2023-04-18T02:39:23.236Z,3.20
2023-04-18T02:40:34.774Z,2.33
2023-04-18T02:41:47.330Z,2.80
2023-04-18T02:42:58.765Z,2.10
2023-04-18T02:44:10.292Z,2.35
2023-04-18T02:45:21.804Z,2.65
2023-04-18T02:46:33.234Z,5.40
2023-04-18T02:47:54.493Z,5.90
2023-04-18T02:49:07.798Z,2.78
2023-04-18T02:50:19.223Z,4.10
2023-04-18T02:51:30.718Z,1.88
2023-04-18T02:52:43.646Z,1.90
2023-04-18T02:53:55.130Z,2.88
2023-04-18T02:55:06.716Z,11.77
2023-04-18T02:56:18.875Z,10.55
2023-04-18T02:57:30.346Z,11.55
2023-04-18T02:58:41.794Z,8.77
2023-04-18T02:59:53.289Z,13.50
2023-04-18T03:01:04.820Z,12.20
2023-04-18T03:02:16.318Z,11.60
2023-04-18T03:03:27.906Z,7.35
2023-04-18T03:04:39.426Z,3.67
2023-04-18T03:05:50.901Z,2.65
2023-04-18T03:07:02.385Z,1.98
2023-04-18T03:08:16.273Z,1.95
2023-04-18T03:09:27.846Z,1.30
2023-04-18T03:10:39.905Z,1.55
2023-04-18T03:11:51.339Z,1.33
2023-04-18T03:13:02.796Z,1.52
2023-04-18T03:14:14.500Z,1.48
2023-04-18T03:15:26.116Z,2.08
2023-04-18T03:16:37.612Z,1.45
2023-04-18T03:17:49.280Z,1.50
2023-04-18T03:19:01.621Z,1.50
2023-04-18T03:20:13.062Z,2.42
2023-04-18T03:21:24.505Z,1.50
2023-04-18T03:22:35.935Z,1.83
2023-04-18T03:23:47.381Z,1.85
2023-04-18T03:25:00.228Z,1.98
2023-04-18T03:26:13.861Z,2.20
2023-04-18T03:27:25.299Z,2.25
2023-04-18T03:28:36.832Z,3.00
2023-04-18T03:29:48.270Z,2.30
2023-04-18T03:30:59.703Z,2.65
2023-04-18T03:32:11.528Z,2.42
2023-04-18T03:33:23.928Z,3.22
2023-04-18T03:34:35.594Z,3.05
2023-04-18T03:35:47.014Z,2.53
2023-04-18T03:36:58.433Z,2.58
2023-04-18T03:38:09.859Z,3.63
2023-04-18T03:39:21.473Z,2.35
2023-04-18T03:40:35.629Z,3.28
2023-04-18T03:41:47.058Z,3.00
2023-04-18T03:42:59.775Z,3.33
2023-04-18T03:44:14.419Z,3.22
2023-04-18T03:45:26.150Z,4.18
2023-04-18T03:46:37.688Z,2.55
2023-04-18T03:47:49.200Z,3.38
2023-04-18T03:49:01.029Z,2.50
2023-04-18T03:50:12.474Z,11.75
2023-04-18T03:51:23.908Z,8.70
2023-04-18T03:52:35.323Z,12.07
2023-04-18T03:53:46.750Z,7.55
2023-04-18T03:54:58.204Z,14.50
2023-04-18T03:56:09.723Z,8.77
2023-04-18T03:57:21.192Z,10.13
2023-04-18T03:58:32.588Z,6.90
2023-04-18T03:59:45.562Z,8.40
2023-04-18T04:00:58.209Z,8.93
2023-04-18T04:02:09.806Z,9.75
2023-04-18T04:03:21.516Z,10.75
2023-04-18T04:04:33.083Z,11.35
2023-04-18T04:05:44.560Z,8.57
2023-04-18T04:06:56.019Z,8.13
2023-04-18T04:08:07.443Z,10.90
2023-04-18T04:09:18.976Z,8.20
2023-04-18T04:10:30.472Z,5.63
2023-04-18T04:11:41.983Z,5.85
2023-04-18T04:12:53.460Z,7.95
2023-04-18T04:14:05.103Z,4.20
2023-04-18T04:15:16.530Z,4.60
2023-04-18T04:16:28.460Z,4.68
2023-04-18T04:17:40.022Z,4.07
2023-04-18T04:18:51.561Z,4.63
2023-04-18T04:20:03.451Z,8.18
2023-04-18T04:21:15.782Z,4.55
2023-04-18T04:22:27.355Z,5.57
2023-04-18T04:23:38.760Z,4.63
2023-04-18T04:24:50.188Z,4.43
2023-04-18T04:26:04.740Z,7.22
2023-04-18T04:27:18.819Z,4.40
2023-04-18T04:28:31.116Z,3.63
2023-04-18T04:29:43.731Z,3.17
2023-04-18T04:30:55.770Z,3.40
2023-04-18T04:32:08.178Z,3.67
2023-04-18T04:33:20.463Z,4.68
2023-04-18T04:34:32.087Z,3.75
2023-04-18T04:35:43.564Z,4.18
2023-04-18T04:36:55.046Z,3.47
2023-04-18T04:38:07.261Z,4.70
2023-04-18T04:39:18.786Z,5.07
2023-04-18T04:40:30.274Z,5.50
2023-04-18T04:41:41.687Z,4.93
2023-04-18T04:42:56.200Z,3.90
2023-04-18T04:44:08.018Z,4.18
2023-04-18T04:45:20.103Z,4.13
2023-04-18T04:46:31.815Z,4.32
2023-04-18T04:47:43.320Z,4.05
2023-04-18T04:48:54.776Z,3.05
2023-04-18T04:50:07.849Z,3.33
2023-04-18T04:51:19.281Z,3.63
2023-04-18T04:52:32.778Z,3.40
2023-04-18T04:53:44.222Z,2.80
2023-04-18T04:54:55.861Z,3.03
2023-04-18T04:56:07.513Z,3.42
2023-04-18T04:57:18.983Z,2.78
2023-04-18T04:58:30.507Z,3.67
2023-04-18T04:59:41.959Z,2.55
2023-04-18T05:00:53.831Z,3.03
2023-04-18T05:02:05.811Z,3.25
2023-04-18T05:03:17.502Z,2.97
2023-04-18T05:04:29.160Z,2.97
2023-04-18T05:05:40.743Z,2.22
2023-04-18T05:06:52.395Z,2.03
2023-04-18T05:08:03.996Z,2.10
2023-04-18T05:09:16.599Z,1.95
2023-04-18T05:10:28.148Z,2.65
2023-04-18T05:11:39.617Z,2.42
2023-04-18T05:12:51.140Z,2.72
2023-04-18T05:14:02.567Z,3.65
2023-04-18T05:15:14.927Z,3.10
2023-04-18T05:16:26.603Z,6.15
2023-04-18T05:17:38.256Z,7.80
2023-04-18T05:18:49.781Z,7.55
2023-04-18T05:20:01.228Z,10.07
2023-04-18T05:21:12.673Z,39.35
2023-04-18T05:22:24.133Z,16.45
2023-04-18T05:23:37.213Z,13.55
2023-04-18T05:24:48.801Z,6.57
2023-04-18T05:26:00.643Z,4.80
2023-04-18T05:27:12.066Z,6.90
2023-04-18T05:28:27.246Z,8.02
2023-04-18T05:29:38.703Z,6.82
2023-04-18T05:30:51.093Z,5.57
2023-04-18T05:32:02.588Z,4.03
2023-04-18T05:33:14.006Z,3.53
2023-04-18T05:34:25.810Z,2.90
2023-04-18T05:35:37.237Z,3.50
2023-04-18T05:36:48.844Z,3.50
2023-04-18T05:38:00.313Z,4.30
2023-04-18T05:39:11.851Z,4.43
2023-04-18T05:40:23.372Z,4.05
2023-04-18T05:41:34.932Z,3.33
2023-04-18T05:42:46.365Z,3.30
2023-04-18T05:44:04.843Z,2.90
2023-04-18T05:45:17.112Z,3.22
2023-04-18T05:46:28.628Z,3.58
2023-04-18T05:47:40.128Z,3.92
2023-04-18T05:48:51.638Z,5.45
2023-04-18T05:50:03.178Z,4.90
2023-04-18T05:51:14.608Z,5.53
2023-04-18T05:52:26.276Z,4.72
2023-04-18T05:53:37.712Z,5.55
2023-04-18T05:54:49.147Z,4.97
2023-04-18T05:56:00.690Z,4.90
2023-04-18T05:57:12.213Z,4.82
2023-04-18T05:58:23.660Z,3.95
2023-04-18T05:59:35.118Z,3.63
2023-04-18T06:00:48.082Z,3.08
2023-04-18T06:01:59.581Z,3.63
2023-04-18T06:03:11.550Z,3.38
2023-04-18T06:04:23.362Z,2.88
2023-04-18T06:05:35.028Z,3.38
2023-04-18T06:06:46.775Z,3.50
2023-04-18T06:07:58.242Z,3.35
2023-04-18T06:09:09.732Z,3.72
2023-04-18T06:10:21.382Z,4.57
2023-04-18T06:11:33.684Z,5.55
2023-04-18T06:12:45.296Z,5.93
2023-04-18T06:13:56.745Z,5.43
2023-04-18T06:15:08.555Z,6.07
2023-04-18T06:16:20.084Z,3.88
2023-04-18T06:17:31.756Z,3.97
2023-04-18T06:18:43.238Z,2.78
2023-04-18T06:19:54.702Z,2.50
2023-04-18T06:21:06.271Z,2.70
2023-04-18T06:22:17.767Z,3.40
2023-04-18T06:23:29.183Z,4.28
2023-04-18T06:24:43.097Z,7.63
2023-04-18T06:25:54.788Z,4.30
2023-04-18T06:27:08.225Z,7.60
2023-04-18T06:28:24.339Z,5.63
2023-04-18T06:29:36.853Z,2.38
2023-04-18T06:30:49.393Z,2.67
2023-04-18T06:32:00.990Z,3.40
2023-04-18T06:33:12.445Z,3.03
2023-04-18T06:34:23.865Z,3.72
2023-04-18T06:35:35.491Z,2.90
2023-04-18T06:36:46.924Z,2.58
2023-04-18T06:37:58.406Z,2.95
2023-04-18T06:39:09.827Z,3.58
2023-04-18T06:40:21.449Z,3.03
2023-04-18T06:41:32.937Z,3.20
2023-04-18T06:42:44.419Z,2.90
2023-04-18T06:44:03.498Z,3.13
2023-04-18T06:45:16.041Z,2.67
2023-04-18T06:46:27.559Z,3.60
2023-04-18T06:47:39.768Z,3.33
2023-04-18T06:48:51.572Z,2.85
2023-04-18T06:50:03.215Z,2.72
2023-04-18T06:51:14.720Z,2.47
2023-04-18T06:52:26.296Z,3.10
2023-04-18T06:53:37.769Z,2.78
2023-04-18T06:54:49.275Z,3.15
2023-04-18T06:56:00.811Z,3.00
2023-04-18T06:57:12.351Z,2.95
2023-04-18T06:58:23.810Z,2.42
2023-04-18T06:59:35.884Z,2.28
2023-04-18T07:00:51.876Z,2.38
2023-04-18T07:02:03.459Z,1.88
2023-04-18T07:03:15.093Z,3.35
2023-04-18T07:04:27.049Z,2.88
2023-04-18T07:05:41.533Z,2.38
2023-04-18T07:06:53.006Z,1.95
2023-04-18T07:08:04.560Z,2.13
2023-04-18T07:09:16.061Z,2.63
2023-04-18T07:10:27.535Z,2.50
2023-04-18T07:11:40.636Z,3.22
2023-04-18T07:12:52.101Z,3.00
2023-04-18T07:14:03.600Z,3.33
2023-04-18T07:15:15.133Z,3.15
2023-04-18T07:16:26.689Z,2.53
2023-04-18T07:17:38.249Z,1.88
2023-04-18T07:18:51.801Z,1.90
2023-04-18T07:20:03.312Z,1.80
2023-04-18T07:21:14.767Z,1.80
2023-04-18T07:22:26.415Z,1.90
2023-04-18T07:23:37.945Z,2.83
2023-04-18T07:24:49.419Z,2.20
2023-04-18T07:26:02.744Z,3.58
2023-04-18T07:27:14.823Z,6.95
2023-04-18T07:28:26.282Z,9.18
2023-04-18T07:29:40.189Z,9.13
2023-04-18T07:30:51.849Z,9.93
2023-04-18T07:32:03.468Z,13.10
2023-04-18T07:33:16.037Z,7.97
2023-04-18T07:34:29.880Z,3.08
2023-04-18T07:35:41.585Z,1.50
2023-04-18T07:36:53.114Z,1.23
2023-04-18T07:38:04.549Z,0.73
2023-04-18T07:39:16.176Z,1.23
2023-04-18T07:40:27.662Z,1.35
2023-04-18T07:41:39.192Z,0.90
2023-04-18T07:42:50.718Z,1.02
2023-04-18T07:44:02.809Z,1.40
2023-04-18T07:45:15.498Z,1.50
2023-04-18T07:46:26.991Z,1.40
2023-04-18T07:47:38.472Z,1.60
2023-04-18T07:48:50.324Z,1.50
2023-04-18T07:50:02.066Z,0.90
2023-04-18T07:51:13.566Z,1.00
2023-04-18T07:52:25.026Z,1.10
2023-04-18T07:53:36.717Z,1.30
2023-04-18T07:54:48.158Z,1.25
2023-04-18T07:55:59.590Z,0.82
2023-04-18T07:57:11.216Z,0.75
2023-04-18T07:58:22.668Z,0.85
2023-04-18T07:59:34.200Z,1.35
2023-04-18T08:00:45.764Z,1.98
2023-04-18T08:01:57.229Z,14.57
2023-04-18T08:03:12.435Z,9.82
2023-04-18T08:04:25.826Z,16.50
2023-04-18T08:05:39.725Z,14.40
2023-04-18T08:06:51.306Z,20.15
2023-04-18T08:08:02.727Z,13.05
2023-04-18T08:09:14.556Z,14.88
2023-04-18T08:10:26.487Z,3.17
2023-04-18T08:11:38.999Z,3.50
2023-04-18T08:12:50.501Z,4.30
2023-04-18T08:14:01.914Z,3.65
2023-04-18T08:15:13.438Z,3.90
2023-04-18T08:16:25.601Z,2.03
2023-04-18T08:17:38.918Z,3.47
2023-04-18T08:18:52.340Z,2.55
2023-04-18T08:20:07.177Z,2.55
2023-04-18T08:21:19.381Z,2.05
2023-04-18T08:22:30.859Z,4.07
2023-04-18T08:23:42.386Z,3.13
2023-04-18T08:26:08.880Z,2.13
2023-04-18T08:27:20.337Z,2.10
2023-04-18T08:28:31.842Z,2.30
2023-04-18T08:29:43.272Z,2.55
2023-04-18T08:30:56.596Z,3.22
2023-04-18T08:32:08.182Z,9.52
2023-04-18T08:33:19.685Z,8.38
2023-04-18T08:34:33.021Z,7.38
2023-04-18T08:35:44.532Z,4.10
2023-04-18T08:36:56.706Z,3.85
2023-04-18T08:38:08.109Z,3.10
2023-04-18T08:39:19.593Z,3.92
2023-04-18T08:40:31.098Z,3.88
2023-04-18T08:41:43.217Z,3.42
2023-04-18T08:42:56.207Z,6.75
2023-04-18T08:44:07.829Z,4.10
2023-04-18T08:45:20.065Z,3.63
2023-04-18T08:46:35.992Z,3.78
2023-04-18T08:47:47.508Z,5.82
2023-04-18T08:48:59.614Z,5.85
2023-04-18T08:50:11.301Z,2.72
2023-04-18T08:51:22.973Z,4.03
2023-04-18T08:52:36.134Z,3.38
2023-04-18T08:53:48.424Z,3.10
2023-04-18T08:54:59.903Z,3.33
2023-04-18T08:56:14.678Z,8.95
2023-04-18T08:57:31.064Z,8.30
2023-04-18T08:58:45.088Z,8.50
2023-04-18T08:59:57.050Z,9.30
2023-04-18T09:01:08.880Z,6.13
2023-04-18T09:02:23.479Z,3.90
2023-04-18T09:03:37.494Z,5.43
2023-04-18T09:04:52.826Z,6.78
2023-04-18T09:06:14.033Z,6.00
2023-04-18T09:07:28.934Z,3.05
2023-04-18T09:08:41.597Z,3.45
2023-04-18T09:09:53.823Z,3.08
2023-04-18T09:11:21.066Z,5.32
2023-04-18T09:12:32.612Z,5.85
2023-04-18T09:13:47.187Z,3.30
2023-04-18T09:15:15.083Z,3.20
2023-04-18T09:16:27.752Z,4.80
2023-04-18T09:17:45.535Z,4.00
2023-04-18T09:19:13.982Z,5.97
2023-04-18T09:20:34.615Z,4.95
2023-04-18T09:21:47.239Z,6.70
2023-04-18T09:23:00.977Z,6.63
2023-04-18T09:24:24.266Z,6.10
2023-04-18T09:25:43.289Z,8.57
2023-04-18T09:27:00.138Z,13.18
2023-04-18T09:28:28.828Z,9.68
2023-04-18T09:29:55.796Z,9.88
2023-04-18T09:31:10.199Z,5.85
2023-04-18T09:32:25.748Z,6.60
2023-04-18T09:33:37.928Z,11.07
2023-04-18T09:34:49.578Z,5.78
2023-04-18T09:36:20.136Z,5.60
2023-04-18T09:37:31.779Z,3.03
2023-04-18T09:38:43.303Z,2.47
2023-04-18T09:39:55.071Z,1.10
2023-04-18T09:41:10.324Z,6.05
2023-04-18T09:42:22.412Z,6.25
2023-04-18T09:43:33.888Z,4.68
2023-04-18T09:44:58.760Z,8.30
2023-04-18T09:46:10.815Z,3.88
2023-04-18T09:47:22.305Z,2.30
2023-04-18T09:48:33.935Z,3.92
2023-04-18T09:49:45.533Z,3.85
2023-04-18T09:50:57.126Z,2.80
2023-04-18T09:52:08.813Z,2.97
2023-04-18T09:53:21.090Z,2.78
2023-04-18T09:54:33.055Z,1.90
2023-04-18T09:55:45.070Z,0.95
2023-04-18T09:56:58.661Z,1.13
2023-04-18T09:58:10.792Z,1.60
2023-04-18T09:59:33.072Z,1.60
2023-04-18T10:00:46.914Z,2.55
2023-04-18T10:01:59.437Z,2.42
2023-04-18T10:03:11.910Z,2.10
2023-04-18T10:04:24.334Z,2.30
2023-04-18T10:05:36.962Z,1.67
2023-04-18T10:06:48.679Z,1.00
2023-04-18T10:08:00.133Z,1.13
2023-04-18T10:09:12.493Z,1.52
2023-04-18T10:10:24.418Z,1.20
2023-04-18T10:11:36.543Z,1.20
2023-04-18T10:12:48.777Z,1.50
2023-04-18T10:14:06.961Z,2.53
2023-04-18T10:15:20.118Z,2.60
2023-04-18T10:16:34.093Z,3.20
2023-04-18T10:18:03.517Z,8.95
2023-04-18T10:19:20.254Z,18.25
2023-04-18T10:20:32.471Z,10.07
2023-04-18T10:21:51.126Z,7.10
2023-04-18T10:23:20.920Z,6.00
2023-04-18T10:24:48.659Z,4.15
2023-04-18T10:26:00.466Z,3.17
2023-04-18T10:27:11.948Z,4.25
2023-04-18T10:28:24.548Z,5.97
2023-04-18T10:29:52.903Z,5.78
2023-04-18T10:31:05.149Z,10.07
2023-04-18T10:32:22.347Z,6.00
2023-04-18T10:33:40.962Z,5.22
2023-04-18T10:34:53.919Z,5.55
2023-04-18T10:36:28.320Z,4.65
2023-04-18T10:37:50.313Z,5.20
2023-04-18T10:39:20.985Z,2.67
2023-04-18T10:40:34.123Z,4.53
2023-04-18T10:41:50.615Z,3.60
2023-04-18T10:43:02.680Z,3.88
2023-04-18T10:44:14.892Z,1.88
2023-04-18T10:45:28.559Z,2.63
2023-04-18T11:08:37.225Z,5.88
2023-04-18T11:09:55.051Z,3.80
2023-04-18T11:11:09.483Z,6.43
2023-04-18T11:12:20.952Z,6.75
2023-04-18T11:13:32.473Z,3.40
2023-04-18T11:14:44.963Z,3.83
2023-04-18T11:15:56.448Z,2.50
2023-04-18T11:17:27.512Z,2.25
2023-04-18T11:18:42.130Z,3.42
2023-04-18T11:20:00.477Z,3.03
2023-04-18T11:21:11.924Z,1.55
2023-04-18T11:22:23.584Z,1.92
2023-04-18T11:23:35.060Z,2.17
2023-04-18T11:24:46.540Z,4.25
2023-04-18T11:25:58.744Z,2.88
2023-04-18T11:27:11.132Z,3.08
2023-04-18T11:28:24.771Z,2.45
2023-04-18T11:29:36.293Z,1.65
2023-04-18T11:30:47.912Z,1.80
2023-04-18T11:31:59.386Z,2.90
2023-04-18T11:33:14.327Z,3.03
2023-04-18T11:34:35.866Z,5.00
2023-04-18T11:35:47.463Z,3.40
2023-04-18T11:36:59.156Z,2.85
2023-04-18T11:38:12.061Z,2.60
2023-04-18T11:39:23.652Z,3.00
2023-04-18T11:40:36.400Z,3.42
2023-04-18T11:41:50.652Z,1.90
2023-04-18T11:43:02.767Z,1.50
2023-04-18T11:44:15.537Z,1.90
2023-04-18T11:45:27.458Z,3.53
2023-04-18T11:46:40.665Z,1.90
2023-04-18T11:47:55.224Z,3.78
2023-04-18T11:49:06.718Z,2.35
2023-04-18T11:50:18.213Z,1.80
2023-04-18T11:51:34.666Z,2.22
2023-04-18T11:52:49.338Z,2.65
2023-04-18T11:54:00.794Z,1.73
2023-04-18T11:55:21.307Z,2.40
2023-04-18T11:56:34.619Z,3.73
2023-04-18T11:57:52.007Z,1.92
2023-04-18T11:59:09.856Z,3.15
2023-04-18T12:00:34.973Z,2.15
2023-04-18T12:01:46.755Z,2.30
2023-04-18T12:03:18.941Z,2.50
2023-04-18T12:04:30.751Z,2.05
2023-04-18T12:05:42.392Z,2.65
2023-04-18T12:06:54.141Z,2.42
2023-04-18T12:08:09.539Z,2.95
2023-04-18T12:09:25.123Z,4.10
2023-04-18T12:10:36.929Z,3.50
2023-04-18T12:12:01.119Z,5.97
2023-04-18T12:13:12.704Z,2.43
2023-04-18T12:14:24.348Z,2.83
2023-04-18T12:15:38.783Z,2.47
2023-04-18T12:16:50.385Z,2.70
2023-04-18T12:18:03.553Z,2.13
2023-04-18T12:19:15.239Z,3.30
2023-04-18T12:20:36.947Z,2.97
2023-04-18T12:22:01.019Z,2.53
2023-04-18T12:23:31.193Z,2.00
2023-04-18T12:24:43.448Z,3.22
2023-04-18T12:26:01.950Z,4.38
2023-04-18T12:27:13.440Z,3.47
2023-04-18T12:28:25.933Z,4.10
2023-04-18T12:29:37.575Z,3.10
2023-04-18T12:30:48.988Z,3.28
2023-04-18T12:32:00.568Z,2.55
2023-04-18T12:33:12.408Z,2.75
2023-04-18T12:34:23.997Z,2.25
2023-04-18T12:35:35.703Z,2.90
2023-04-18T12:36:47.210Z,2.60
2023-04-18T12:37:59.578Z,3.13
2023-04-18T12:39:11.030Z,3.20
2023-04-18T12:40:23.287Z,2.40
2023-04-18T12:41:34.895Z,3.80
2023-04-18T12:42:47.233Z,2.10
2023-04-18T12:43:58.708Z,2.08
2023-04-18T12:45:11.744Z,2.63
2023-04-18T12:46:23.201Z,2.58
2023-04-18T12:47:35.746Z,3.67
2023-04-18T12:48:47.298Z,3.30
2023-04-18T12:49:59.871Z,2.88
2023-04-18T12:51:11.325Z,2.42
2023-04-18T12:52:22.792Z,2.15
2023-04-18T12:53:34.284Z,3.15
2023-04-18T12:54:46.125Z,2.20
2023-04-18T12:55:57.578Z,2.10
2023-04-18T12:57:09.017Z,1.75
2023-04-18T12:58:20.988Z,2.95
2023-04-18T12:59:32.460Z,3.45
2023-04-18T13:00:44.044Z,2.30
2023-04-18T13:01:55.781Z,2.40
2023-04-18T13:03:08.240Z,4.32
2023-04-18T13:04:20.953Z,1.98
2023-04-18T13:05:34.061Z,4.00
2023-04-18T13:06:45.822Z,4.55
2023-04-18T13:08:08.628Z,1.60
2023-04-18T13:09:27.749Z,3.42
2023-04-18T13:10:39.206Z,4.47
2023-04-18T13:11:50.747Z,3.40
2023-04-18T13:13:02.170Z,2.73
2023-04-18T13:14:13.791Z,3.10
2023-04-18T13:15:27.458Z,5.28
2023-04-18T13:16:39.766Z,4.90
2023-04-18T13:17:52.574Z,4.60
2023-04-18T13:19:04.111Z,2.42
2023-04-18T13:20:16.411Z,1.83
2023-04-18T13:21:28.262Z,1.35
2023-04-18T13:22:40.580Z,3.03
2023-04-18T13:23:52.067Z,3.33
2023-04-18T13:25:03.876Z,4.17
2023-04-18T13:26:15.284Z,3.85
2023-04-18T13:27:26.942Z,3.10
2023-04-18T13:28:38.401Z,2.20
2023-04-18T13:29:50.008Z,4.03
2023-04-18T13:31:01.417Z,3.13
2023-04-18T13:32:13.381Z,3.45
2023-04-18T13:33:24.858Z,3.08
2023-04-18T13:34:41.347Z,4.53
2023-04-18T13:35:52.871Z,3.25
2023-04-18T13:37:04.366Z,3.33
2023-04-18T13:38:15.896Z,3.90
2023-04-18T13:39:27.444Z,2.33
2023-04-18T13:40:38.865Z,3.67
2023-04-18T13:41:50.420Z,3.97
2023-04-18T13:43:01.935Z,3.65
2023-04-18T13:44:13.392Z,3.13
2023-04-18T13:45:24.889Z,3.30
2023-04-18T13:46:36.617Z,3.03
2023-04-18T13:47:48.104Z,3.70
2023-04-18T13:48:59.583Z,5.37
2023-04-18T13:50:11.420Z,4.10
2023-04-18T13:51:22.938Z,5.97
2023-04-18T13:52:34.458Z,5.27
2023-04-18T13:53:45.880Z,2.03
2023-04-18T13:54:57.381Z,5.13
2023-04-18T13:56:08.836Z,5.30
2023-04-18T13:57:20.924Z,5.20
2023-04-18T13:58:32.467Z,8.37
2023-04-18T13:59:43.965Z,4.97
2023-04-18T14:00:56.167Z,16.20
2023-04-18T14:02:10.783Z,11.00
2023-04-18T14:03:22.779Z,4.43
2023-04-18T14:04:34.938Z,4.53
2023-04-18T14:05:46.458Z,5.10
2023-04-18T14:06:58.124Z,3.60
2023-04-18T14:08:09.622Z,2.87
2023-04-18T14:09:21.205Z,3.33
2023-04-18T14:10:32.722Z,4.37
2023-04-18T14:11:44.732Z,3.00
2023-04-18T14:12:56.235Z,2.83
2023-04-18T14:14:07.848Z,2.03
2023-04-18T14:15:19.558Z,3.13
2023-04-18T14:16:33.410Z,2.63
2023-04-18T14:17:45.873Z,4.93
2023-04-18T14:18:58.231Z,4.23
2023-04-18T14:20:09.843Z,3.40
2023-04-18T14:21:21.343Z,3.40
2023-04-18T14:22:32.827Z,2.30
2023-04-18T14:23:44.241Z,3.20
2023-04-18T14:24:56.194Z,3.17
2023-04-18T14:26:07.702Z,2.03
2023-04-18T14:27:19.158Z,1.63
2023-04-18T14:28:30.658Z,2.27
2023-04-18T14:29:42.293Z,2.23
2023-04-18T14:30:57.824Z,3.40
2023-04-18T14:32:09.547Z,3.70
2023-04-18T14:33:20.998Z,2.20
2023-04-18T14:34:34.394Z,4.57
2023-04-18T14:35:49.597Z,1.80
2023-04-18T14:37:01.216Z,2.63
2023-04-18T14:38:12.689Z,2.47
2023-04-18T14:39:24.795Z,2.70
2023-04-18T14:40:36.332Z,3.67
2023-04-18T14:41:48.316Z,2.30
2023-04-18T14:42:59.836Z,1.13
2023-04-18T14:44:11.333Z,1.90
2023-04-18T14:45:22.814Z,2.00
2023-04-18T14:46:34.274Z,1.30
2023-04-18T14:47:45.855Z,2.00
2023-04-18T14:48:57.397Z,1.30
2023-04-18T14:50:09.512Z,2.00
2023-04-18T14:51:20.990Z,2.93
2023-04-18T14:52:35.151Z,1.70
2023-04-18T14:53:46.641Z,1.03
2023-04-18T14:54:58.051Z,1.20
2023-04-18T14:56:09.630Z,1.63
2023-04-18T14:57:21.108Z,1.47
2023-04-18T14:58:32.593Z,1.60
2023-04-18T14:59:44.119Z,1.30
2023-04-18T15:00:56.362Z,1.97
2023-04-18T15:02:07.920Z,3.27
2023-04-18T15:03:19.571Z,2.80
2023-04-18T15:04:31.199Z,2.20
2023-04-18T15:05:48.534Z,1.50
2023-04-18T15:06:59.959Z,1.50
2023-04-18T15:08:11.525Z,2.00
2023-04-18T15:09:23.017Z,2.00
2023-04-18T15:10:34.427Z,2.37
2023-04-18T15:11:45.857Z,1.07
2023-04-18T15:12:57.534Z,2.40
2023-04-18T15:14:09.114Z,2.27
2023-04-18T15:15:20.983Z,1.65
2023-04-18T15:16:32.547Z,2.17
2023-04-18T15:17:44.180Z,2.27
2023-04-18T15:18:55.713Z,1.57
2023-04-18T15:20:07.823Z,1.30
2023-04-18T15:21:19.273Z,1.47
2023-04-18T15:22:30.766Z,1.40
2023-04-18T15:23:42.228Z,1.75
2023-04-18T15:24:53.673Z,1.77
2023-04-18T15:26:05.264Z,2.20
2023-04-18T15:27:18.714Z,2.33
2023-04-18T15:28:30.919Z,2.17
2023-04-18T15:29:42.421Z,1.70
2023-04-18T15:30:54.017Z,1.85
2023-04-18T15:32:06.262Z,3.95
2023-04-18T15:33:19.175Z,3.67
2023-04-18T15:34:31.404Z,2.27
2023-04-18T15:35:42.873Z,3.57
2023-04-18T15:36:54.319Z,3.85
2023-04-18T15:38:06.809Z,3.37
2023-04-18T15:39:21.714Z,5.50
2023-04-18T15:40:33.221Z,5.75
2023-04-18T15:41:44.826Z,3.80
2023-04-18T15:42:57.882Z,4.40
2023-04-18T15:44:09.342Z,5.20
2023-04-18T15:45:21.435Z,4.50
2023-04-18T15:46:33.122Z,4.40
2023-04-18T15:47:44.678Z,6.07
2023-04-18T15:48:56.261Z,4.93
2023-04-18T15:50:08.421Z,4.50
2023-04-18T15:51:20.011Z,4.80
2023-04-18T15:52:31.518Z,3.08
2023-04-18T15:53:43.057Z,3.85
2023-04-18T15:54:54.624Z,3.73
2023-04-18T15:56:06.450Z,4.57
2023-04-18T15:57:18.276Z,2.77
2023-04-18T15:58:30.462Z,4.05
2023-04-18T15:59:41.995Z,2.90
2023-04-18T16:00:55.011Z,3.60
2023-04-18T16:02:08.473Z,3.50
2023-04-18T16:03:20.324Z,4.90
2023-04-18T16:04:33.047Z,6.10
2023-04-18T16:05:44.714Z,5.33
2023-04-18T16:06:56.276Z,3.53
2023-04-18T16:08:09.042Z,3.50
2023-04-18T16:09:20.547Z,3.83
2023-04-18T16:10:32.034Z,5.63
2023-04-18T16:11:43.606Z,4.93
2023-04-18T16:12:55.072Z,4.82
2023-04-18T16:14:06.554Z,4.03
2023-04-18T16:15:18.089Z,4.70
2023-04-18T16:16:29.706Z,4.45
2023-04-18T16:17:41.246Z,3.60
2023-04-18T16:18:52.758Z,3.77
2023-04-18T16:20:05.975Z,3.50
2023-04-18T16:21:17.528Z,4.10
2023-04-18T16:22:29.052Z,3.50
2023-04-18T16:23:40.775Z,3.03
2023-04-18T16:24:52.253Z,4.27
2023-04-18T16:26:03.759Z,4.78
2023-04-18T16:27:15.463Z,5.43
2023-04-18T16:28:26.922Z,5.47
2023-04-18T16:29:38.354Z,4.00